Time;durP1;ratioP1;P1;durP2;ratioP2;P2;SDS_P1;SDS_P2;PMS_P1;PMS_P2;Temp;Humidity;BMP_temperature;BMP_pressure;BME280_temperature;BME280_humidity;BME280_pressure;Samples;Min_cycle;Max_cycle;Signal;HPM_P1;HPM_P2
2021/11/30 00:00:12;;;;;;;;;;;;;;;0.87;89.13;97068.62;1760447;80;20260;-82
2021/11/30 00:02:39;;;;;;;;;;;;;;;0.84;89.15;97062.33;1774245;80;21776;-82
2021/11/30 00:05:06;;;;;;;;;;;;;;;0.83;89.19;97065.35;1769603;80;22033;-82
2021/11/30 00:07:34;;;;;;;;;;;;;;;0.83;89.24;97073.53;1765818;80;26060;-82
2021/11/30 00:12:28;;;;;;;;;;;;;;;0.75;89.30;97062.82;1770402;80;20221;-82
2021/11/30 00:14:56;;;;;;;;;;;;;;;0.72;89.33;97062.52;1777146;80;25763;-82
2021/11/30 00:17:27;;;;;;;;;;;;;;;0.69;89.37;97067.00;1783320;79;21977;-82
2021/11/30 00:19:52;;;;;;;;;;;;;;;0.65;89.40;97068.92;1775789;80;26151;-82
2021/11/30 00:22:20;;;;;;;;;;;;;;;0.63;89.44;97069.44;1764691;80;24551;-81
2021/11/30 00:24:47;;;;;;;;;;;;;;;0.63;89.48;97080.19;1736111;82;20195;-82
2021/11/30 00:27:13;;;;;;;;;;;;;;;0.62;89.54;97084.95;1783019;80;24758;-81
2021/11/30 00:29:40;;;;;;;;;;;;;;;0.62;89.60;97087.53;1760187;80;22219;-82
2021/11/30 00:32:06;;;;;;;;;;;;;;;0.60;89.66;97095.32;1749596;79;25863;-81
2021/11/30 00:34:32;;;;;;;;;;;;;;;0.62;89.72;97095.25;1759314;81;24452;-81
2021/11/30 00:36:59;;;;;;;;;;;;;;;0.64;89.79;97101.16;1759796;80;20389;-82
2021/11/30 00:39:25;;;;;;;;;;;;;;;0.63;89.84;97100.33;1760330;81;24876;-82
2021/11/30 00:41:54;;;;;;;;;;;;;;;0.64;89.93;97108.44;1760558;80;21932;-81
2021/11/30 00:44:22;;;;;;;;;;;;;;;0.67;89.99;97112.13;1769461;80;26877;-81
2021/11/30 00:46:51;;;;;;;;;;;;;;;0.71;90.06;97111.05;1758854;80;24432;-82
2021/11/30 00:49:16;;;;;;;;;;;;;;;0.73;90.12;97116.12;1754056;80;20585;-81
2021/11/30 00:51:43;;;;;;;;;;;;;;;0.76;90.20;97122.42;1758589;80;25395;-82
2021/11/30 00:54:10;;;;;;;;;;;;;;;0.81;90.26;97123.02;1761240;80;22271;-82
2021/11/30 00:56:38;;;;;;;;;;;;;;;0.83;90.31;97131.47;1762373;80;25996;-82
2021/11/30 00:59:04;;;;;;;;;;;;;;;0.86;90.37;97137.77;1758869;80;24491;-82
2021/11/30 01:01:31;;;;;;;;;;;;;;;0.89;90.43;97138.88;1750449;80;20261;-83
2021/11/30 01:04:01;;;;;;;;;;;;;;;0.92;90.49;97146.92;1764940;80;25046;-83
2021/11/30 01:06:27;;;;;;;;;;;;;;;0.96;90.52;97148.41;1758817;80;22836;-82
2021/11/30 01:08:53;;;;;;;;;;;;;;;0.99;90.57;97150.36;1748566;80;21064;-82
2021/11/30 01:11:22;;;;;;;;;;;;;;;1.03;90.60;97154.47;1758770;81;24028;-83
2021/11/30 01:13:48;;;;;;;;;;;;;;;1.07;90.66;97166.72;1734228;81;20238;-83
2021/11/30 01:16:16;;;;;;;;;;;;;;;1.05;90.67;97159.06;1724112;79;21551;-83
2021/11/30 01:18:45;;;;;;;;;;;;;;;1.05;90.70;97162.92;1743087;81;22038;-83
2021/11/30 01:21:16;;;;;;;;;;;;;;;1.07;90.74;97173.98;1755276;80;26033;-83
2021/11/30 01:23:42;;;;;;;;;;;;;;;1.08;90.74;97174.83;1766526;80;24670;-82
2021/11/30 01:26:08;;;;;;;;;;;;;;;1.09;90.74;97173.44;1754964;80;20511;-83
2021/11/30 01:28:34;;;;;;;;;;;;;;;1.10;90.76;97169.95;1760755;80;24752;-82
2021/11/30 01:31:01;;;;;;;;;;;;;;;1.11;90.77;97177.23;1749069;80;20312;-83
2021/11/30 01:33:29;;;;;;;;;;;;;;;1.12;90.79;97173.30;1753307;80;25984;-82
2021/11/30 01:35:55;;;;;;;;;;;;;;;1.13;90.78;97172.84;1759703;80;24048;-83
2021/11/30 01:38:26;;;;;;;;;;;;;;;1.14;90.80;97169.36;1764590;80;20409;-82
2021/11/30 01:40:52;;;;;;;;;;;;;;;1.16;90.79;97171.38;1752895;79;25843;-82
2021/11/30 01:43:22;;;;;;;;;;;;;;;1.18;90.80;97177.30;1734530;81;21990;-82
2021/11/30 01:45:57;;;;;;;;;;;;;;;1.18;90.81;97178.12;1750766;80;26186;-82
2021/11/30 01:50:52;;;;;;;;;;;;;;;1.18;90.79;97170.40;1766658;79;20287;-82
2021/11/30 01:53:18;;;;;;;;;;;;;;;1.16;90.80;97164.48;1753463;80;24895;-82
2021/11/30 01:55:45;;;;;;;;;;;;;;;1.20;90.79;97163.40;1761807;80;22790;-83
2021/11/30 01:58:16;;;;;;;;;;;;;;;1.24;90.79;97167.95;1752458;80;26074;-82
2021/11/30 02:00:43;;;;;;;;;;;;;;;1.25;90.79;97177.36;1759398;79;24630;-82
2021/11/30 02:03:09;;;;;;;;;;;;;;;1.29;90.83;97177.56;1761240;79;20475;-82
2021/11/30 02:05:37;;;;;;;;;;;;;;;1.29;90.83;97178.84;1745437;80;24872;-82
2021/11/30 02:08:04;;;;;;;;;;;;;;;1.29;90.82;97182.72;1764802;79;21770;-82
2021/11/30 02:10:31;;;;;;;;;;;;;;;1.26;90.81;97185.44;1758722;80;26009;-82
2021/11/30 02:12:58;;;;;;;;;;;;;;;1.28;90.82;97186.66;1726806;81;24427;-81
2021/11/30 02:15:26;;;;;;;;;;;;;;;1.24;90.78;97195.02;1760583;80;20321;-81
2021/11/30 02:17:53;;;;;;;;;;;;;;;1.20;90.76;97191.74;1754322;79;25358;-82
2021/11/30 02:20:19;;;;;;;;;;;;;;;1.22;90.75;97192.95;1750961;80;22573;-82
2021/11/30 02:22:58;;;;;;;;;;;;;;;1.21;90.74;97199.02;1749407;80;26051;-82
2021/11/30 02:25:24;;;;;;;;;;;;;;;1.22;90.76;97196.83;1758514;79;24490;-83
2021/11/30 02:27:51;;;;;;;;;;;;;;;1.18;90.74;97202.61;1758905;80;20515;-82
2021/11/30 02:30:17;;;;;;;;;;;;;;;1.17;90.73;97203.97;1760933;79;24655;-83
2021/11/30 02:32:47;;;;;;;;;;;;;;;1.16;90.73;97200.55;1760365;80;21827;-83
2021/11/30 02:35:13;;;;;;;;;;;;;;;1.15;90.76;97207.90;1759191;79;26190;-82
2021/11/30 02:37:44;;;;;;;;;;;;;;;1.14;90.76;97202.40;1732343;81;24372;-82
2021/11/30 02:40:09;;;;;;;;;;;;;;;1.14;90.76;97210.13;1756694;80;20206;-83
2021/11/30 02:42:35;;;;;;;;;;;;;;;1.15;90.79;97207.90;1756250;80;24827;-82
2021/11/30 02:45:01;;;;;;;;;;;;;;;1.16;90.79;97212.60;1761475;79;22114;-82
2021/11/30 02:47:27;;;;;;;;;;;;;;;1.17;90.84;97206.55;1758148;80;26630;-82
2021/11/30 02:49:53;;;;;;;;;;;;;;;1.17;90.86;97206.09;1760453;80;20859;-82
2021/11/30 02:52:19;;;;;;;;;;;;;;;1.17;90.88;97211.24;1757391;80;20336;-82
2021/11/30 02:54:53;;;;;;;;;;;;;;;1.16;90.94;97210.86;1758940;81;24853;-83
2021/11/30 02:57:24;;;;;;;;;;;;;;;1.16;90.98;97214.72;1752606;80;22834;-86
2021/11/30 02:59:52;;;;;;;;;;;;;;;1.15;91.00;97213.05;1763442;79;26156;-84
2021/11/30 03:02:22;;;;;;;;;;;;;;;1.16;91.03;97215.17;1757421;80;25092;-84
2021/11/30 03:04:50;;;;;;;;;;;;;;;1.16;91.05;97209.57;1738278;80;20228;-83
2021/11/30 03:07:18;;;;;;;;;;;;;;;1.16;91.09;97213.89;1753386;80;24789;-83
2021/11/30 03:09:48;;;;;;;;;;;;;;;1.17;91.14;97212.53;1750753;80;21994;-83
2021/11/30 03:12:14;;;;;;;;;;;;;;;1.18;91.14;97214.66;1758869;80;25950;-82
2021/11/30 03:14:40;;;;;;;;;;;;;;;1.17;91.19;97209.95;1734519;80;25088;-82
2021/11/30 03:17:06;;;;;;;;;;;;;;;1.18;91.21;97214.66;1767359;79;20261;-82
2021/11/30 03:19:33;;;;;;;;;;;;;;;1.17;91.26;97216.39;1759166;79;24749;-82
2021/11/30 03:22:00;;;;;;;;;;;;;;;1.18;91.28;97211.63;1756836;80;22120;-82
2021/11/30 03:24:28;;;;;;;;;;;;;;;1.19;91.33;97211.17;1749622;79;21377;-82
2021/11/30 03:26:54;;;;;;;;;;;;;;;1.20;91.39;97218.00;1749173;79;25446;-82
2021/11/30 03:29:21;;;;;;;;;;;;;;;1.20;91.41;97213.64;1758924;80;20476;-82
2021/11/30 03:31:51;;;;;;;;;;;;;;;1.20;91.45;97211.06;1757797;80;24740;-82
2021/11/30 03:34:17;;;;;;;;;;;;;;;1.20;91.45;97212.36;1758475;81;21937;-82
2021/11/30 03:36:45;;;;;;;;;;;;;;;1.20;91.49;97217.51;1755887;80;26800;-82
2021/11/30 03:39:13;;;;;;;;;;;;;;;1.21;91.53;97211.45;1760297;80;24383;-82
2021/11/30 03:41:41;;;;;;;;;;;;;;;1.20;91.56;97214.93;1757433;80;20363;-82
2021/11/30 03:44:07;;;;;;;;;;;;;;;1.18;91.59;97215.94;1731346;81;25125;-84
2021/11/30 03:46:35;;;;;;;;;;;;;;;1.18;91.60;97225.80;1758677;79;21984;-83
2021/11/30 03:49:02;;;;;;;;;;;;;;;1.16;91.64;97217.30;1757554;79;25992;-83
2021/11/30 03:51:28;;;;;;;;;;;;;;;1.12;91.64;97226.11;1756399;80;24493;-83
2021/11/30 03:53:54;;;;;;;;;;;;;;;1.09;91.65;97219.80;1754084;80;20256;-83
2021/11/30 03:56:20;;;;;;;;;;;;;;;1.05;91.64;97218.30;1745340;80;25556;-82
2021/11/30 03:58:46;;;;;;;;;;;;;;;1.04;91.66;97217.09;1754402;80;22040;-83
2021/11/30 04:01:12;;;;;;;;;;;;;;;1.01;91.68;97212.95;1755972;79;21655;-84
2021/11/30 04:03:41;;;;;;;;;;;;;;;0.99;91.67;97215.20;1748632;79;24410;-83
2021/11/30 04:06:08;;;;;;;;;;;;;;;0.98;91.71;97216.98;1761169;80;20187;-84
2021/11/30 04:08:37;;;;;;;;;;;;;;;0.96;91.74;97218.79;1762477;80;24758;-83
2021/11/30 04:11:02;;;;;;;;;;;;;;;0.96;91.75;97220.53;1726027;81;21786;-83
2021/11/30 04:13:28;;;;;;;;;;;;;;;0.98;91.80;97216.98;1766756;80;26120;-83
2021/11/30 04:15:54;;;;;;;;;;;;;;;1.02;91.84;97220.22;1768074;80;20315;-83
2021/11/30 04:18:20;;;;;;;;;;;;;;;1.04;91.88;97219.66;1776962;79;20291;-83
2021/11/30 04:20:46;;;;;;;;;;;;;;;1.05;91.91;97221.34;1771188;79;20566;-82
2021/11/30 04:23:12;;;;;;;;;;;;;;;1.05;91.94;97221.34;1760880;80;20220;-82
2021/11/30 04:25:40;;;;;;;;;;;;;;;1.04;91.98;97223.08;1763325;80;26729;-82
2021/11/30 04:28:06;;;;;;;;;;;;;;;1.05;92.01;97220.88;1749981;80;24486;-82
2021/11/30 04:30:33;;;;;;;;;;;;;;;1.04;92.06;97224.81;1762128;80;20336;-82
2021/11/30 04:33:01;;;;;;;;;;;;;;;1.04;92.06;97223.08;1749092;80;20215;-82
2021/11/30 04:35:27;;;;;;;;;;;;;;;1.05;92.09;97225.20;1757302;80;21981;-82
2021/11/30 04:37:53;;;;;;;;;;;;;;;1.05;92.12;97229.06;1752460;80;26025;-82
2021/11/30 04:40:19;;;;;;;;;;;;;;;1.03;92.14;97220.15;1768752;79;24631;-82
2021/11/30 04:42:47;;;;;;;;;;;;;;;1.07;92.16;97224.22;1758682;80;20472;-82
2021/11/30 04:45:25;;;;;;;;;;;;;;;1.10;92.20;97221.93;1757415;80;24751;-82
2021/11/30 04:47:52;;;;;;;;;;;;;;;1.09;92.21;97217.23;1759902;79;22461;-82
2021/11/30 04:50:22;;;;;;;;;;;;;;;1.11;92.26;97219.28;1751296;80;25974;-83
2021/11/30 04:52:49;;;;;;;;;;;;;;;1.13;92.28;97226.48;1750662;80;24514;-82
2021/11/30 04:55:22;;;;;;;;;;;;;;;1.14;92.34;97230.73;1748305;80;20155;-82
2021/11/30 04:57:44;;;;;;;;;;;;;;;1.15;92.35;97227.22;1754846;79;24800;-82
2021/11/30 05:00:10;;;;;;;;;;;;;;;1.18;92.36;97224.95;1742288;79;22106;-82
2021/11/30 05:02:36;;;;;;;;;;;;;;;1.19;92.37;97225.34;1752759;80;25926;-82
2021/11/30 05:05:08;;;;;;;;;;;;;;;1.19;92.39;97230.05;1753342;80;20955;-82
2021/11/30 05:07:33;;;;;;;;;;;;;;;1.20;92.40;97220.08;1760200;79;20542;-82
2021/11/30 05:10:00;;;;;;;;;;;;;;;1.21;92.42;97221.76;1763201;79;24967;-82
2021/11/30 05:12:30;;;;;;;;;;;;;;;1.21;92.42;97215.77;1757444;79;21992;-82
2021/11/30 05:14:56;;;;;;;;;;;;;;;1.21;92.44;97213.19;1762894;79;26008;-82
2021/11/30 05:17:22;;;;;;;;;;;;;;;1.20;92.44;97214.93;1761125;80;24453;-82
2021/11/30 05:19:48;;;;;;;;;;;;;;;1.17;92.45;97209.12;1760047;80;20311;-82
2021/11/30 05:22:19;;;;;;;;;;;;;;;1.15;92.43;97218.20;1758387;80;24756;-82
2021/11/30 05:24:45;;;;;;;;;;;;;;;1.17;92.45;97216.39;1758889;80;22003;-82
2021/11/30 05:27:11;;;;;;;;;;;;;;;1.20;92.46;97211.55;1762407;80;25965;-82
2021/11/30 05:29:37;;;;;;;;;;;;;;;1.18;92.48;97214.20;1757972;80;24473;-82
2021/11/30 05:32:03;;;;;;;;;;;;;;;1.17;92.49;97207.38;1751916;80;20334;-82
2021/11/30 05:34:29;;;;;;;;;;;;;;;1.18;92.46;97205.63;1762043;80;24740;-83
2021/11/30 05:36:56;;;;;;;;;;;;;;;1.17;92.50;97203.51;1762745;79;22049;-83
2021/11/30 05:39:22;;;;;;;;;;;;;;;1.20;92.50;97205.91;1758847;80;26640;-83
2021/11/30 05:41:48;;;;;;;;;;;;;;;1.21;92.53;97199.02;1758228;80;25266;-82
2021/11/30 05:44:14;;;;;;;;;;;;;;;1.21;92.53;97205.46;1762569;79;20261;-82
2021/11/30 05:46:40;;;;;;;;;;;;;;;1.23;92.54;97207.06;1754790;80;24781;-83
2021/11/30 05:49:07;;;;;;;;;;;;;;;1.23;92.54;97203.65;1760522;80;21961;-83
2021/11/30 05:51:34;;;;;;;;;;;;;;;1.20;92.53;97199.47;1753679;79;26094;-83
2021/11/30 05:54:00;;;;;;;;;;;;;;;1.21;92.52;97201.14;1764592;79;24586;-83
2021/11/30 05:56:27;;;;;;;;;;;;;;;1.21;92.52;97195.99;1750974;80;20344;-83
2021/11/30 05:58:53;;;;;;;;;;;;;;;1.22;92.52;97195.53;1754658;81;25512;-83
2021/11/30 06:06:18;;;;;;;;;;;;;;;1.28;92.57;97192.64;1756393;80;24469;-83
2021/11/30 06:08:45;;;;;;;;;;;;;;;1.25;92.56;97191.05;1756412;80;20257;-83
2021/11/30 06:11:12;;;;;;;;;;;;;;;1.23;92.56;97194.17;1756589;80;24803;-83
2021/11/30 06:13:38;;;;;;;;;;;;;;;1.23;92.55;97192.89;1726489;81;22010;-84
2021/11/30 06:16:04;;;;;;;;;;;;;;;1.23;92.54;97189.48;1767042;79;26202;-84
2021/11/30 06:18:30;;;;;;;;;;;;;;;1.21;92.53;97178.41;1760338;80;24410;-83
2021/11/30 06:20:57;;;;;;;;;;;;;;;1.21;92.51;97189.55;1759490;81;20328;-83
2021/11/30 06:23:24;;;;;;;;;;;;;;;1.22;92.51;97185.23;1757931;80;24757;-83
2021/11/30 06:25:50;;;;;;;;;;;;;;;1.23;92.53;97181.30;1757848;81;21978;-83
2021/11/30 06:28:16;;;;;;;;;;;;;;;1.25;92.53;97179.45;1759232;80;25967;-83
2021/11/30 06:30:42;;;;;;;;;;;;;;;1.26;92.53;97180.28;1752859;81;24483;-83
2021/11/30 06:33:08;;;;;;;;;;;;;;;1.25;92.53;97176.87;1755882;80;20280;-83
2021/11/30 06:35:37;;;;;;;;;;;;;;;1.28;92.53;97177.63;1750657;80;20229;-83
2021/11/30 06:38:02;;;;;;;;;;;;;;;1.29;92.58;97180.59;1751429;79;22101;-82
2021/11/30 06:40:28;;;;;;;;;;;;;;;1.27;92.53;97181.95;1759778;79;26815;-83
2021/11/30 06:42:54;;;;;;;;;;;;;;;1.28;92.53;97182.78;1754900;80;24398;-83
2021/11/30 06:45:20;;;;;;;;;;;;;;;1.26;92.54;97184.98;1758315;80;20347;-82
2021/11/30 06:47:46;;;;;;;;;;;;;;;1.28;92.54;97181.50;1763171;79;25035;-82
2021/11/30 06:50:19;;;;;;;;;;;;;;;1.29;92.53;97184.45;1759434;80;22682;-83
2021/11/30 06:52:48;;;;;;;;;;;;;;;1.28;92.53;97169.45;1759695;80;26706;-82
2021/11/30 06:55:16;;;;;;;;;;;;;;;1.29;92.56;97172.86;1753299;80;24392;-83
2021/11/30 06:57:42;;;;;;;;;;;;;;;1.30;92.55;97170.66;1760299;79;20447;-83
2021/11/30 07:00:09;;;;;;;;;;;;;;;1.29;92.50;97176.27;1765564;80;24921;-83
2021/11/30 07:02:36;;;;;;;;;;;;;;;1.29;92.53;97169.83;1747062;80;22045;-83
2021/11/30 07:15:43;;;;;;;;;;;;;;;1.22;92.41;97162.04;1758540;80;22013;-83
2021/11/30 07:18:11;;;;;;;;;;;;;;;1.21;92.39;97160.38;1756041;80;26135;-83
2021/11/30 07:20:37;;;;;;;;;;;;;;;1.20;92.36;97175.48;1729383;80;24580;-83
2021/11/30 07:23:04;;;;;;;;;;;;;;;1.19;92.33;97165.63;1747466;80;20242;-83
2021/11/30 07:25:30;;;;;;;;;;;;;;;1.21;92.33;97164.23;1761100;80;24834;-83
2021/11/30 07:27:56;;;;;;;;;;;;;;;1.25;92.33;97154.97;1757783;80;22800;-84
2021/11/30 07:30:22;;;;;;;;;;;;;;;1.27;92.34;97157.47;1757818;80;26206;-83
2021/11/30 07:32:48;;;;;;;;;;;;;;;1.28;92.34;97150.58;1757471;80;24603;-83
2021/11/30 07:35:14;;;;;;;;;;;;;;;1.27;92.31;97154.89;1761026;79;20220;-83
2021/11/30 07:37:40;;;;;;;;;;;;;;;1.30;92.28;97156.49;1760119;81;24817;-83
2021/11/30 07:40:07;;;;;;;;;;;;;;;1.31;92.25;97158.97;1756504;80;21991;-83
2021/11/30 07:42:35;;;;;;;;;;;;;;;1.33;92.26;97149.87;1761318;80;26007;-83
2021/11/30 07:45:02;;;;;;;;;;;;;;;1.37;92.24;97146.20;1756779;81;24420;-83
2021/11/30 07:47:28;;;;;;;;;;;;;;;1.38;92.22;97145.30;1761883;79;20220;-83
2021/11/30 07:49:54;;;;;;;;;;;;;;;1.40;92.20;97139.16;1763847;80;24812;-84
2021/11/30 07:52:20;;;;;;;;;;;;;;;1.42;92.17;97136.02;1763845;79;20382;-83
2021/11/30 07:54:46;;;;;;;;;;;;;;;1.43;92.14;97140.27;1755627;79;26083;-83
2021/11/30 07:57:13;;;;;;;;;;;;;;;1.45;92.08;97143.61;1754654;80;24909;-83
2021/11/30 07:59:44;;;;;;;;;;;;;;;1.46;92.02;97135.42;1754143;80;20346;-83
2021/11/30 08:02:08;;;;;;;;;;;;;;;1.46;91.96;97145.73;1752427;79;24863;-83
2021/11/30 08:04:34;;;;;;;;;;;;;;;1.47;91.89;97143.08;1766143;79;22026;-82
2021/11/30 08:07:00;;;;;;;;;;;;;;;1.51;91.82;97138.58;1758880;80;25930;-83
2021/11/30 08:09:27;;;;;;;;;;;;;;;1.54;91.75;97139.69;1760512;80;24502;-83
2021/11/30 08:11:55;;;;;;;;;;;;;;;1.58;91.69;97146.36;1762665;80;20174;-83
2021/11/30 08:14:21;;;;;;;;;;;;;;;1.61;91.62;97151.34;1760457;79;24922;-83
2021/11/30 08:16:47;;;;;;;;;;;;;;;1.63;91.54;97154.67;1758713;80;21982;-83
2021/11/30 08:19:17;;;;;;;;;;;;;;;1.60;91.46;97154.38;1735356;80;26004;-83
2021/11/30 08:21:45;;;;;;;;;;;;;;;1.58;91.33;97154.09;1748778;79;20263;-84
2021/11/30 08:24:11;;;;;;;;;;;;;;;1.59;91.24;97157.02;1756419;79;20567;-83
2021/11/30 08:26:37;;;;;;;;;;;;;;;1.59;91.13;97149.29;1761381;79;24475;-83
2021/11/30 08:29:07;;;;;;;;;;;;;;;1.60;91.07;97146.64;1750430;80;20847;-83
2021/11/30 08:31:33;;;;;;;;;;;;;;;1.63;91.00;97150.35;1772140;79;26019;-83
2021/11/30 08:33:59;;;;;;;;;;;;;;;1.67;90.93;97146.69;1758605;80;25254;-84
2021/11/30 08:36:25;;;;;;;;;;;;;;;1.68;90.84;97135.46;1755243;80;20285;-84
2021/11/30 08:38:57;;;;;;;;;;;;;;;1.67;90.77;97129.09;1756163;80;24821;-83
2021/11/30 08:41:26;;;;;;;;;;;;;;;1.68;90.65;97124.31;1758908;80;22047;-83
2021/11/30 08:43:52;;;;;;;;;;;;;;;1.71;90.56;97128.45;1759786;80;26070;-83
2021/11/30 08:46:18;;;;;;;;;;;;;;;1.77;90.50;97134.56;1738197;81;20249;-83
2021/11/30 08:48:44;;;;;;;;;;;;;;;1.79;90.43;97131.45;1751840;80;20322;-85
2021/11/30 08:51:10;;;;;;;;;;;;;;;1.82;90.34;97126.94;1760800;80;24727;-84
2021/11/30 08:53:36;;;;;;;;;;;;;;;1.84;90.29;97120.42;1756493;80;20316;-83
2021/11/30 08:56:03;;;;;;;;;;;;;;;1.84;90.23;97121.70;1757784;80;25999;-84
2021/11/30 08:58:30;;;;;;;;;;;;;;;1.82;90.12;97121.78;1753636;80;24532;-84
2021/11/30 09:00:56;;;;;;;;;;;;;;;1.78;90.03;97117.72;1765976;79;20201;-84
2021/11/30 09:03:25;;;;;;;;;;;;;;;1.76;89.89;97108.39;1762752;79;25642;-83
2021/11/30 09:05:51;;;;;;;;;;;;;;;1.75;89.78;97111.42;1757844;79;21981;-83
2021/11/30 09:08:17;;;;;;;;;;;;;;;1.75;89.66;97098.98;1758563;80;26707;-84
2021/11/30 09:10:44;;;;;;;;;;;;;;;1.77;89.56;97092.01;1754829;81;24542;-84
2021/11/30 09:13:14;;;;;;;;;;;;;;;1.75;89.45;97089.51;1760627;79;20214;-84
2021/11/30 09:15:38;;;;;;;;;;;;;;;1.77;89.35;97087.69;1755871;81;25639;-83
2021/11/30 09:18:07;;;;;;;;;;;;;;;1.78;89.26;97080.78;1757999;80;22059;-84
2021/11/30 09:20:33;;;;;;;;;;;;;;;1.79;89.15;97084.57;1755785;80;25966;-84
2021/11/30 09:23:05;;;;;;;;;;;;;;;1.84;89.07;97075.28;1761317;79;24423;-84
2021/11/30 09:25:32;;;;;;;;;;;;;;;1.88;89.02;97069.86;1756827;80;20484;-84
2021/11/30 09:28:01;;;;;;;;;;;;;;;1.93;88.97;97073.00;1753907;80;24811;-84
2021/11/30 09:30:28;;;;;;;;;;;;;;;1.97;88.93;97068.48;1758036;79;22102;-84
2021/11/30 09:32:55;;;;;;;;;;;;;;;1.99;88.88;97049.44;1766406;79;25996;-84
2021/11/30 09:35:21;;;;;;;;;;;;;;;2.02;88.87;97031.64;1754464;79;24427;-84
2021/11/30 09:37:51;;;;;;;;;;;;;;;2.07;88.85;97024.00;1754327;80;20213;-84
2021/11/30 09:40:18;;;;;;;;;;;;;;;2.09;88.81;97017.02;1763575;79;24857;-83
2021/11/30 09:42:48;;;;;;;;;;;;;;;2.13;88.75;96998.79;1756309;79;22052;-83
2021/11/30 09:45:15;;;;;;;;;;;;;;;2.14;88.67;96992.69;1753689;80;26810;-84
2021/11/30 09:47:41;;;;;;;;;;;;;;;2.15;88.58;96993.89;1751434;79;24387;-84
2021/11/30 09:50:15;;;;;;;;;;;;;;;2.21;88.54;96980.63;1751319;80;20197;-84
2021/11/30 09:52:42;;;;;;;;;;;;;;;2.28;88.48;96979.80;1744748;79;24769;-84
2021/11/30 09:55:14;;;;;;;;;;;;;;;2.36;88.43;96970.66;1759684;80;22053;-84
2021/11/30 09:57:38;;;;;;;;;;;;;;;2.43;88.41;96959.05;1763104;80;26224;-84
2021/11/30 10:00:07;;;;;;;;;;;;;;;2.48;88.35;96958.31;1762441;80;23941;-84
2021/11/30 10:02:33;;;;;;;;;;;;;;;2.50;88.27;96962.09;1759881;80;20535;-84
2021/11/30 10:05:00;;;;;;;;;;;;;;;2.50;88.15;96960.80;1756581;79;24847;-84
2021/11/30 10:07:43;;;;;;;;;;;;;;;2.48;88.01;96950.56;1757794;80;22049;-84
2021/11/30 10:10:14;;;;;;;;;;;;;;;2.49;87.86;96948.36;1749383;80;26287;-84
2021/11/30 10:12:40;;;;;;;;;;;;;;;2.52;87.74;96944.73;1760844;79;24397;-84
2021/11/30 10:15:08;;;;;;;;;;;;;;;2.51;87.60;96943.08;1749673;80;20276;-84
2021/11/30 10:17:35;;;;;;;;;;;;;;;2.46;87.43;96921.42;1763534;80;24859;-85
2021/11/30 10:20:13;;;;;;;;;;;;;;;2.45;87.25;96935.73;1737344;81;20513;-84
2021/11/30 10:22:51;;;;;;;;;;;;;;;2.45;87.07;96933.16;1757642;80;26244;-84
2021/11/30 10:25:21;;;;;;;;;;;;;;;2.43;86.89;96929.83;1745862;80;24694;-85
2021/11/30 10:27:52;;;;;;;;;;;;;;;2.36;86.65;96921.63;1759768;80;20277;-84
2021/11/30 10:30:22;;;;;;;;;;;;;;;2.29;86.43;96924.69;1759469;80;24822;-84
2021/11/30 10:32:51;;;;;;;;;;;;;;;2.24;86.20;96921.07;1757952;80;22045;-85
2021/11/30 10:35:20;;;;;;;;;;;;;;;2.24;86.00;96906.05;1760430;79;26034;-84
2021/11/30 10:37:47;;;;;;;;;;;;;;;2.24;85.81;96908.17;1758474;80;24285;-84
2021/11/30 10:40:18;;;;;;;;;;;;;;;2.21;85.62;96896.75;1754808;79;20831;-84
2021/11/30 10:42:46;;;;;;;;;;;;;;;2.20;85.45;96880.90;1771791;79;24561;-84
2021/11/30 10:45:14;;;;;;;;;;;;;;;2.19;85.26;96875.82;1755644;79;22089;-84
2021/11/30 10:47:41;;;;;;;;;;;;;;;2.23;85.08;96878.15;1753501;80;26924;-84
2021/11/30 10:50:09;;;;;;;;;;;;;;;2.27;84.95;96871.87;1768262;79;24612;-84
2021/11/30 10:52:37;;;;;;;;;;;;;;;2.28;84.81;96864.95;1752741;80;20232;-84
2021/11/30 10:55:08;;;;;;;;;;;;;;;2.29;84.67;96857.09;1750617;79;24821;-84
2021/11/30 10:57:36;;;;;;;;;;;;;;;2.28;84.52;96846.43;1759043;79;22062;-85
2021/11/30 11:00:07;;;;;;;;;;;;;;;2.26;84.33;96855.17;1761046;80;26024;-84
2021/11/30 11:02:48;;;;;;;;;;;;;;;2.29;84.19;96845.97;1749453;80;24414;-84
2021/11/30 11:05:19;;;;;;;;;;;;;;;2.30;84.07;96842.44;1755387;80;20238;-84
2021/11/30 11:07:50;;;;;;;;;;;;;;;2.24;83.93;96838.48;1759615;80;24847;-84
2021/11/30 11:10:25;;;;;;;;;;;;;;;2.21;83.82;96830.95;1743147;80;21969;-84
2021/11/30 11:12:53;;;;;;;;;;;;;;;2.19;83.73;96829.38;1757082;80;26249;-85
2021/11/30 11:15:38;;;;;;;;;;;;;;;2.17;83.64;96827.37;1759054;80;24499;-84
2021/11/30 11:18:20;;;;;;;;;;;;;;;2.14;83.54;96819.80;1735701;81;20165;-84
2021/11/30 11:20:46;;;;;;;;;;;;;;;2.07;83.48;96804.70;1759791;80;25809;-84
2021/11/30 11:23:20;;;;;;;;;;;;;;;2.04;83.43;96808.77;1760900;80;21597;-84
2021/11/30 11:25:46;;;;;;;;;;;;;;;2.01;83.41;96799.94;1761789;80;26024;-84
2021/11/30 11:28:12;;;;;;;;;;;;;;;1.97;83.36;96790.72;1753407;80;24444;-84
2021/11/30 11:30:39;;;;;;;;;;;;;;;1.95;83.37;96782.27;1751654;80;20246;-84
2021/11/30 11:33:05;;;;;;;;;;;;;;;1.95;83.40;96774.98;1752920;79;24801;-84
2021/11/30 11:35:31;;;;;;;;;;;;;;;1.94;83.44;96756.55;1776844;79;22326;-84
2021/11/30 11:38:04;;;;;;;;;;;;;;;1.90;83.47;96753.81;1754732;80;26070;-85
2021/11/30 11:40:30;;;;;;;;;;;;;;;1.89;83.50;96745.70;1753090;79;25347;-84
2021/11/30 11:42:56;;;;;;;;;;;;;;;1.91;83.55;96728.39;1754111;80;20371;-84
2021/11/30 11:45:23;;;;;;;;;;;;;;;1.91;83.59;96731.77;1762839;80;24750;-84
2021/11/30 11:47:50;;;;;;;;;;;;;;;1.90;83.64;96717.70;1758937;80;21944;-85
2021/11/30 11:50:17;;;;;;;;;;;;;;;1.92;83.70;96710.67;1764291;79;26004;-84
2021/11/30 11:52:43;;;;;;;;;;;;;;;1.94;83.73;96708.37;1755808;80;24547;-84
2021/11/30 11:55:14;;;;;;;;;;;;;;;1.96;83.76;96703.96;1745903;80;20280;-84
2021/11/30 11:57:42;;;;;;;;;;;;;;;1.99;83.81;96691.31;1761629;79;25578;-84
2021/11/30 12:00:22;;;;;;;;;;;;;;;2.02;83.82;96680.78;1755817;80;21590;-84
2021/11/30 12:02:52;;;;;;;;;;;;;;;2.01;83.82;96667.55;1756464;80;27148;-84
2021/11/30 12:05:20;;;;;;;;;;;;;;;2.01;83.81;96655.48;1767242;79;24440;-85
2021/11/30 12:07:54;;;;;;;;;;;;;;;2.06;83.81;96653.43;1754939;80;20411;-84
2021/11/30 12:10:22;;;;;;;;;;;;;;;2.09;83.81;96641.61;1727063;80;24950;-84
2021/11/30 12:12:56;;;;;;;;;;;;;;;2.08;83.78;96623.17;1750931;79;22024;-84
2021/11/30 12:15:23;;;;;;;;;;;;;;;2.07;83.73;96623.30;1755635;80;26073;-85
2021/11/30 12:17:49;;;;;;;;;;;;;;;2.07;83.69;96618.14;1760004;80;24579;-84
2021/11/30 12:20:15;;;;;;;;;;;;;;;2.06;83.66;96603.13;1761281;80;20275;-84
2021/11/30 12:22:43;;;;;;;;;;;;;;;2.08;83.61;96592.68;1760910;79;24807;-84
2021/11/30 12:25:29;;;;;;;;;;;;;;;2.12;83.56;96571.39;1748456;80;21963;-84
2021/11/30 12:28:01;;;;;;;;;;;;;;;2.10;83.52;96589.09;1755704;79;26035;-84
2021/11/30 12:30:44;;;;;;;;;;;;;;;2.08;83.50;96584.48;1778084;79;26342;-85
2021/11/30 12:33:15;;;;;;;;;;;;;;;2.08;83.50;96561.72;1766105;79;20344;-85
2021/11/30 12:35:44;;;;;;;;;;;;;;;2.08;83.48;96580.61;1760008;80;24797;-84
2021/11/30 12:38:15;;;;;;;;;;;;;;;2.14;83.46;96570.35;1755167;80;22080;-84
2021/11/30 12:40:43;;;;;;;;;;;;;;;2.19;83.46;96573.91;1754419;80;25957;-84
2021/11/30 12:43:13;;;;;;;;;;;;;;;2.22;83.46;96563.41;1754046;80;24407;-84
2021/11/30 12:45:52;;;;;;;;;;;;;;;2.23;83.40;96561.19;1764596;79;20308;-84
2021/11/30 12:48:22;;;;;;;;;;;;;;;2.23;83.32;96550.41;1753005;79;25831;-84
2021/11/30 12:50:45;;;;;;;;;;;;;;;2.24;83.23;96538.30;1751871;80;21981;-84
2021/11/30 12:53:12;;;;;;;;;;;;;;;2.23;83.13;96532.34;1760263;80;26056;-84
2021/11/30 12:55:42;;;;;;;;;;;;;;;2.23;83.03;96528.94;1734599;79;24466;-84
2021/11/30 12:58:11;;;;;;;;;;;;;;;2.22;82.92;96517.78;1754270;79;20242;-84
2021/11/30 13:00:37;;;;;;;;;;;;;;;2.22;82.83;96520.83;1754862;80;24843;-84
2021/11/30 13:03:17;;;;;;;;;;;;;;;2.22;82.72;96516.95;1761448;79;20252;-84
2021/11/30 13:05:54;;;;;;;;;;;;;;;2.23;82.64;96510.41;1757341;80;26185;-84
2021/11/30 13:08:21;;;;;;;;;;;;;;;2.27;82.59;96491.20;1758983;79;24512;-84
2021/11/30 13:10:49;;;;;;;;;;;;;;;2.26;82.53;96492.59;1737319;80;20286;-84
2021/11/30 13:13:23;;;;;;;;;;;;;;;2.27;82.48;96497.66;1750037;80;24827;-84
2021/11/30 13:15:57;;;;;;;;;;;;;;;2.27;82.43;96482.63;1767136;79;21985;-84
2021/11/30 13:18:24;;;;;;;;;;;;;;;2.27;82.32;96471.84;1757394;80;26045;-84
2021/11/30 13:20:51;;;;;;;;;;;;;;;2.27;82.25;96473.14;1742889;80;24547;-84